createdAt,value
2017-10-01T00:00:58.522Z,96.35
2017-10-01T00:03:26.159Z,96.57
2017-10-01T00:05:53.816Z,96.79
2017-10-01T00:08:21.417Z,97.10
2017-10-01T00:10:49.046Z,97.58
2017-10-01T00:13:16.652Z,98.25
2017-10-01T00:15:44.310Z,98.47
2017-10-01T00:18:11.944Z,98.07
2017-10-01T00:20:39.577Z,98.08
2017-10-01T00:23:07.218Z,98.36
2017-10-01T00:25:34.830Z,98.54
2017-10-01T00:28:02.474Z,98.65
2017-10-01T00:30:30.114Z,98.62
2017-10-01T00:32:57.730Z,98.50
2017-10-01T00:35:25.375Z,98.00
2017-10-01T00:37:53.088Z,97.65
2017-10-01T00:40:20.687Z,97.24
2017-10-01T00:42:48.334Z,96.64
2017-10-01T00:45:15.939Z,96.22
2017-10-01T00:47:43.630Z,95.85
2017-10-01T00:50:11.473Z,94.97
2017-10-01T00:52:39.074Z,94.73
2017-10-01T00:55:06.729Z,94.43
2017-10-01T00:57:34.320Z,94.28
2017-10-01T01:00:01.950Z,93.88
2017-10-01T01:02:29.563Z,93.73
2017-10-01T01:04:57.235Z,93.49
2017-10-01T01:07:24.858Z,92.91
2017-10-01T01:09:52.483Z,93.50
2017-10-01T01:12:20.095Z,94.13
2017-10-01T01:14:47.721Z,94.70
2017-10-01T01:17:15.351Z,94.22
2017-10-01T01:19:42.982Z,94.61
2017-10-01T01:22:10.567Z,94.60
2017-10-01T01:24:38.466Z,94.28
2017-10-01T01:27:06.114Z,94.13
2017-10-01T01:29:33.753Z,93.68
2017-10-01T01:32:01.340Z,93.18
2017-10-01T01:34:28.965Z,93.12
2017-10-01T01:36:56.585Z,92.59
2017-10-01T01:39:24.250Z,92.14
2017-10-01T01:41:51.844Z,92.23
2017-10-01T01:44:19.466Z,92.14
2017-10-01T01:46:47.068Z,92.05
2017-10-01T01:49:14.706Z,91.98
2017-10-01T01:51:42.292Z,92.01
2017-10-01T01:54:09.917Z,92.08
2017-10-01T01:56:37.512Z,92.69
2017-10-01T01:59:05.250Z,93.23
2017-10-01T02:01:32.856Z,93.64
2017-10-01T02:04:00.494Z,93.66
2017-10-01T02:06:28.082Z,93.90
2017-10-01T02:08:55.714Z,94.02
2017-10-01T02:11:23.350Z,93.83
2017-10-01T02:13:50.970Z,93.49
2017-10-01T02:16:18.639Z,94.68
2017-10-01T02:18:46.258Z,95.33
2017-10-01T02:21:13.882Z,95.84
2017-10-01T02:23:41.513Z,96.07
2017-10-01T02:26:09.115Z,95.45
2017-10-01T02:28:36.815Z,95.29
2017-10-01T02:31:04.424Z,95.25
2017-10-01T02:33:32.067Z,95.26
2017-10-01T02:35:59.687Z,95.17
2017-10-01T02:38:27.318Z,94.86
2017-10-01T02:40:54.911Z,94.55
2017-10-01T02:43:22.523Z,93.58
2017-10-01T02:45:50.131Z,93.65
2017-10-01T02:48:17.790Z,94.08
2017-10-01T02:50:45.368Z,94.29
2017-10-01T02:53:13.004Z,93.72
2017-10-01T02:55:40.602Z,93.92
2017-10-01T02:58:08.250Z,94.58
2017-10-01T03:00:35.827Z,94.94
2017-10-01T03:03:03.450Z,94.83
2017-10-01T03:05:31.038Z,94.47
2017-10-01T03:07:58.674Z,94.17
2017-10-01T03:10:26.265Z,93.84
2017-10-01T03:12:53.930Z,93.91
2017-10-01T03:15:21.532Z,93.97
2017-10-01T03:17:49.146Z,94.29
2017-10-01T03:20:16.754Z,94.24
2017-10-01T03:22:45.154Z,93.89
2017-10-01T03:25:12.765Z,93.98
2017-10-01T03:27:40.386Z,94.06
2017-10-01T03:30:07.971Z,94.28
2017-10-01T03:32:35.617Z,94.45
2017-10-01T03:35:03.315Z,94.14
2017-10-01T03:37:30.959Z,94.37
2017-10-01T03:39:58.534Z,94.59
2017-10-01T03:42:26.170Z,95.25
2017-10-01T03:44:53.779Z,95.26
2017-10-01T03:47:21.415Z,95.25
2017-10-01T03:49:49.106Z,95.24
2017-10-01T03:52:16.713Z,94.93
2017-10-01T03:54:44.341Z,94.95
2017-10-01T03:57:12.043Z,94.88
2017-10-01T03:59:39.809Z,94.60
2017-10-01T04:02:07.427Z,94.98
2017-10-01T04:04:35.043Z,95.09
2017-10-01T04:07:02.722Z,95.37
2017-10-01T04:09:30.339Z,95.36
2017-10-01T04:11:57.939Z,94.87
2017-10-01T04:14:25.615Z,94.94
2017-10-01T04:16:53.211Z,95.23
2017-10-01T04:19:20.860Z,95.43
2017-10-01T04:21:48.468Z,95.23
2017-10-01T04:24:16.097Z,95.22
2017-10-01T04:26:43.811Z,94.90
2017-10-01T04:29:11.434Z,94.89
2017-10-01T04:31:39.049Z,94.98
2017-10-01T04:34:06.660Z,95.12
2017-10-01T04:36:34.303Z,95.18
2017-10-01T04:39:01.958Z,95.50
2017-10-01T04:41:29.554Z,95.42
2017-10-01T04:43:57.186Z,95.55
2017-10-01T04:46:24.819Z,95.79
2017-10-01T04:48:52.455Z,95.84
2017-10-01T04:51:20.061Z,95.99
2017-10-01T04:53:47.770Z,95.97
2017-10-01T04:56:15.392Z,95.93
2017-10-01T04:58:42.978Z,96.01
2017-10-01T05:01:10.611Z,95.96
2017-10-01T05:03:38.274Z,96.23
2017-10-01T05:06:05.902Z,95.96
2017-10-01T05:08:33.547Z,96.00
2017-10-01T05:11:01.213Z,95.25
2017-10-01T05:13:28.861Z,95.28
2017-10-01T05:15:56.510Z,95.55
2017-10-01T05:18:24.106Z,95.55
2017-10-01T05:20:51.722Z,95.48
2017-10-01T05:23:19.318Z,95.81
2017-10-01T05:25:46.952Z,96.03
2017-10-01T05:28:14.712Z,96.15
2017-10-01T05:30:42.381Z,96.14
2017-10-01T05:33:09.983Z,96.36
2017-10-01T05:35:37.765Z,96.53
2017-10-01T05:38:05.362Z,96.68
2017-10-01T05:40:33.027Z,96.62
2017-10-01T05:43:00.656Z,96.65
2017-10-01T05:45:28.294Z,96.68
2017-10-01T05:47:55.875Z,96.81
2017-10-01T05:50:23.471Z,96.85
2017-10-01T05:52:51.106Z,96.65
2017-10-01T05:55:18.758Z,96.81
2017-10-01T05:57:46.434Z,96.68
2017-10-01T06:00:14.086Z,96.21
2017-10-01T06:02:41.699Z,96.48
2017-10-01T06:05:09.331Z,96.05
2017-10-01T06:07:36.922Z,95.95
2017-10-01T06:10:04.547Z,96.00
2017-10-01T06:12:32.135Z,96.09
2017-10-01T06:14:59.803Z,96.19
2017-10-01T06:17:27.417Z,96.12
2017-10-01T06:19:55.009Z,96.06
2017-10-01T06:22:22.664Z,96.01
2017-10-01T06:24:50.287Z,96.03
2017-10-01T06:27:17.919Z,95.89
2017-10-01T06:29:45.610Z,95.75
2017-10-01T06:32:13.246Z,95.76
2017-10-01T06:34:40.928Z,95.29
2017-10-01T06:37:08.580Z,95.21
2017-10-01T06:39:36.169Z,95.21
2017-10-01T06:42:03.880Z,95.24
2017-10-01T06:44:31.475Z,95.10
2017-10-01T06:46:59.139Z,94.93
2017-10-01T06:49:26.870Z,95.22
2017-10-01T06:51:54.510Z,95.19
2017-10-01T06:54:22.107Z,94.86
2017-10-01T06:56:49.734Z,95.20
2017-10-01T06:59:17.350Z,95.22
2017-10-01T07:01:45.006Z,95.54
2017-10-01T07:04:12.608Z,95.33
2017-10-01T07:06:43.157Z,95.53
2017-10-01T07:09:10.761Z,95.64
2017-10-01T07:11:38.354Z,95.62
2017-10-01T07:14:05.993Z,95.64
2017-10-01T07:16:33.606Z,95.65
2017-10-01T07:19:01.235Z,95.80
2017-10-01T07:21:28.866Z,95.85
2017-10-01T07:23:56.494Z,96.21
2017-10-01T07:26:24.198Z,95.94
2017-10-01T07:28:51.826Z,96.20
2017-10-01T07:31:19.431Z,95.86
2017-10-01T07:33:47.067Z,95.16
2017-10-01T07:36:14.692Z,95.14
2017-10-01T07:38:42.334Z,94.94
2017-10-01T07:41:10.019Z,95.62
2017-10-01T07:43:37.693Z,95.52
2017-10-01T07:46:05.295Z,95.44
2017-10-01T07:48:32.974Z,95.27
2017-10-01T07:51:00.598Z,94.44
2017-10-01T07:53:28.294Z,94.28
2017-10-01T07:55:56.004Z,93.43
2017-10-01T07:58:23.656Z,93.93
2017-10-01T08:00:52.690Z,93.98
2017-10-01T08:03:20.464Z,93.65
2017-10-01T08:05:48.111Z,92.35
2017-10-01T08:08:15.746Z,92.96
2017-10-01T08:10:43.370Z,92.71
2017-10-01T08:13:11.917Z,92.59
2017-10-01T08:15:39.551Z,92.22
2017-10-01T08:18:07.194Z,92.53
2017-10-01T08:20:34.819Z,92.25
2017-10-01T08:23:02.413Z,92.04
2017-10-01T08:25:31.164Z,92.05
2017-10-01T08:27:58.782Z,92.24
2017-10-01T08:30:26.441Z,91.91
2017-10-01T08:32:54.048Z,92.21
2017-10-01T08:35:21.760Z,91.90
2017-10-01T08:37:49.483Z,91.06
2017-10-01T08:40:17.135Z,90.71
2017-10-01T08:42:44.737Z,89.37
2017-10-01T08:45:12.582Z,90.01
2017-10-01T08:47:40.182Z,89.77
2017-10-01T08:50:07.865Z,88.45
2017-10-01T08:52:35.488Z,88.91
2017-10-01T08:55:03.234Z,88.48
2017-10-01T08:57:30.878Z,89.47
2017-10-01T08:59:58.504Z,88.41
2017-10-01T09:02:26.101Z,88.58
2017-10-01T09:04:53.863Z,87.63
2017-10-01T09:07:22.440Z,88.28
2017-10-01T09:09:50.909Z,86.54
2017-10-01T09:12:18.527Z,86.55
2017-10-01T09:14:46.162Z,85.33
2017-10-01T09:17:13.816Z,85.09
2017-10-01T09:19:41.546Z,84.96
2017-10-01T09:22:09.149Z,84.84
2017-10-01T09:24:36.869Z,85.09
2017-10-01T09:27:04.502Z,85.41
2017-10-01T09:29:32.211Z,84.57
2017-10-01T09:31:59.852Z,83.58
2017-10-01T09:34:27.478Z,83.74
2017-10-01T09:36:55.111Z,83.45
2017-10-01T09:39:22.794Z,83.11
2017-10-01T09:41:50.395Z,82.72
2017-10-01T09:44:18.035Z,82.36
2017-10-01T09:46:45.647Z,83.04
2017-10-01T09:49:13.525Z,81.36
2017-10-01T09:51:41.138Z,80.79
2017-10-01T09:54:09.742Z,80.27
2017-10-01T09:56:37.343Z,79.28
2017-10-01T09:59:04.970Z,79.77
2017-10-01T10:01:32.577Z,80.46
2017-10-01T10:04:00.201Z,79.47
2017-10-01T10:06:27.814Z,80.63
2017-10-01T10:08:55.554Z,80.25
2017-10-01T10:11:23.200Z,77.95
2017-10-01T10:13:50.791Z,77.53
2017-10-01T10:16:18.466Z,78.57
2017-10-01T10:18:46.157Z,77.66
2017-10-01T10:21:13.766Z,76.34
2017-10-01T10:23:41.398Z,75.85
2017-10-01T10:26:09.001Z,75.89
2017-10-01T10:28:36.650Z,75.65
2017-10-01T10:31:04.275Z,74.84
2017-10-01T10:33:32.050Z,75.71
2017-10-01T10:35:59.652Z,74.37
2017-10-01T10:38:27.319Z,74.96
2017-10-01T10:40:55.082Z,73.55
2017-10-01T10:43:22.766Z,73.23
2017-10-01T10:45:50.496Z,73.13
2017-10-01T10:48:18.358Z,73.22
2017-10-01T10:50:45.955Z,73.46
2017-10-01T10:53:13.602Z,72.76
2017-10-01T10:55:41.216Z,71.88
2017-10-01T10:58:08.866Z,71.31
2017-10-01T11:00:36.508Z,69.71
2017-10-01T11:03:04.138Z,68.83
2017-10-01T11:05:31.791Z,69.44
2017-10-01T11:07:59.453Z,70.42
2017-10-01T11:10:27.052Z,69.22
2017-10-01T11:12:54.902Z,69.65
2017-10-01T11:15:22.542Z,70.64
2017-10-01T11:17:50.293Z,69.55
2017-10-01T11:20:18.010Z,68.83
2017-10-01T11:22:45.707Z,69.94
2017-10-01T11:25:13.311Z,69.72
2017-10-01T11:27:40.921Z,67.64
2017-10-01T11:30:08.546Z,68.25
2017-10-01T11:32:36.136Z,67.53
2017-10-01T11:35:03.822Z,67.39
2017-10-01T11:37:31.484Z,68.22
2017-10-01T11:40:00.349Z,68.05
2017-10-01T11:42:27.982Z,66.29
2017-10-01T11:44:55.648Z,66.05
2017-10-01T11:47:23.262Z,66.25
2017-10-01T11:49:50.902Z,66.64
2017-10-01T11:52:18.505Z,64.86
2017-10-01T11:54:46.163Z,63.16
2017-10-01T11:57:13.795Z,63.59
2017-10-01T11:59:41.465Z,63.65
2017-10-01T12:02:09.066Z,63.70
2017-10-01T12:04:36.672Z,64.89
2017-10-01T12:07:04.278Z,66.31
2017-10-01T12:09:31.974Z,66.90
2017-10-01T12:11:59.603Z,69.09
2017-10-01T12:14:27.228Z,69.53
2017-10-01T12:16:54.846Z,70.61
2017-10-01T12:19:22.458Z,69.34
2017-10-01T12:21:50.106Z,70.14
2017-10-01T12:24:17.804Z,70.75
2017-10-01T12:26:45.437Z,68.19
2017-10-01T12:29:13.025Z,64.62
2017-10-01T12:31:40.658Z,65.11
2017-10-01T12:34:08.289Z,64.84
2017-10-01T12:36:35.918Z,64.88
2017-10-01T12:39:03.548Z,65.48
2017-10-01T12:41:31.211Z,66.85
2017-10-01T12:43:58.818Z,66.33
2017-10-01T12:46:26.658Z,66.57
2017-10-01T12:48:54.258Z,65.03
2017-10-01T12:51:21.979Z,64.06
2017-10-01T12:53:49.580Z,62.81
2017-10-01T12:56:17.212Z,60.65
2017-10-01T12:58:44.824Z,61.77
2017-10-01T13:14:36.617Z,59.88
2017-10-01T13:17:04.254Z,58.99
2017-10-01T13:19:31.988Z,59.58
2017-10-01T13:21:59.646Z,59.64
2017-10-01T13:24:27.230Z,58.36
2017-10-01T13:26:54.853Z,59.23
2017-10-01T13:29:22.480Z,60.57
2017-10-01T13:31:50.425Z,60.68
2017-10-01T13:34:18.194Z,59.96
2017-10-01T13:36:45.842Z,60.94
2017-10-01T13:39:13.431Z,59.48
2017-10-01T13:41:41.094Z,58.28
2017-10-01T13:44:08.685Z,57.82
2017-10-01T13:46:36.505Z,57.34
2017-10-01T13:49:04.187Z,57.08
2017-10-01T13:51:31.793Z,55.97
2017-10-01T13:53:59.598Z,53.98
2017-10-01T13:56:27.196Z,51.27
2017-10-01T13:58:54.994Z,51.52
2017-10-01T14:01:22.611Z,52.82
2017-10-01T14:03:50.259Z,52.56
2017-10-01T14:06:17.875Z,52.64
2017-10-01T14:08:45.522Z,53.63
2017-10-01T14:11:13.139Z,54.57
2017-10-01T14:13:40.771Z,55.28
2017-10-01T14:16:08.387Z,56.64
2017-10-01T14:18:36.058Z,57.02
2017-10-01T14:21:03.686Z,58.52
2017-10-01T14:23:31.351Z,57.26
2017-10-01T14:25:58.968Z,57.66
2017-10-01T14:28:26.590Z,57.48
2017-10-01T14:30:59.838Z,57.25
2017-10-01T14:33:27.483Z,57.12
2017-10-01T14:35:55.078Z,55.70
2017-10-01T14:38:22.699Z,55.35
2017-10-01T14:40:50.414Z,55.35
2017-10-01T14:43:18.058Z,55.08
2017-10-01T14:45:45.682Z,54.66
2017-10-01T14:48:13.282Z,55.04
2017-10-01T14:50:40.980Z,54.95
2017-10-01T14:53:08.709Z,55.44
2017-10-01T14:55:36.362Z,55.46
2017-10-01T14:58:03.962Z,55.51
2017-10-01T15:00:32.278Z,54.38
2017-10-01T15:02:59.890Z,54.74
2017-10-01T15:05:27.523Z,54.65
2017-10-01T15:07:55.196Z,53.88
2017-10-01T15:10:22.881Z,54.50
2017-10-01T15:12:50.500Z,54.75
2017-10-01T15:15:18.083Z,55.14
2017-10-01T15:17:45.719Z,56.04
2017-10-01T15:20:13.358Z,56.52
2017-10-01T15:22:40.946Z,57.37
2017-10-01T15:25:08.555Z,57.14
2017-10-01T15:27:36.190Z,57.49
2017-10-01T15:30:03.782Z,57.26
2017-10-01T15:32:31.502Z,57.71
2017-10-01T15:34:59.242Z,58.17
2017-10-01T15:37:26.909Z,58.86
2017-10-01T15:39:54.610Z,59.01
2017-10-01T15:42:22.242Z,59.19
2017-10-01T15:44:49.852Z,59.85
2017-10-01T15:47:17.495Z,59.94
2017-10-01T15:49:45.109Z,60.26
2017-10-01T15:52:12.737Z,60.60
2017-10-01T15:54:40.310Z,60.76
2017-10-01T15:57:07.958Z,60.76
2017-10-01T15:59:35.574Z,61.34
2017-10-01T16:02:03.230Z,61.68
2017-10-01T16:04:30.847Z,61.81
2017-10-01T16:06:58.496Z,61.99
2017-10-01T16:09:26.112Z,62.15
2017-10-01T16:11:53.784Z,62.28
2017-10-01T16:14:21.386Z,62.43
2017-10-01T16:16:49.028Z,62.49
2017-10-01T16:19:16.628Z,62.39
2017-10-01T16:21:44.223Z,62.79
2017-10-01T16:24:11.875Z,62.49
2017-10-01T16:26:39.519Z,62.73
2017-10-01T16:29:07.163Z,62.61
2017-10-01T16:31:34.763Z,62.87
2017-10-01T16:34:02.417Z,62.49
2017-10-01T16:36:30.034Z,62.40
2017-10-01T16:38:57.671Z,62.77
2017-10-01T16:41:25.286Z,62.44
2017-10-01T16:43:52.905Z,62.73
2017-10-01T16:46:20.530Z,63.37
2017-10-01T16:48:48.170Z,63.56
2017-10-01T16:51:15.795Z,63.34
2017-10-01T16:53:43.758Z,63.25
2017-10-01T16:56:11.356Z,63.69
2017-10-01T16:58:38.990Z,64.00
2017-10-01T17:01:06.595Z,63.46
2017-10-01T17:03:34.227Z,63.69
2017-10-01T17:06:01.843Z,64.09
2017-10-01T17:08:29.486Z,64.47
2017-10-01T17:10:57.119Z,64.90
2017-10-01T17:13:24.773Z,64.99
2017-10-01T17:15:52.478Z,65.23
2017-10-01T17:18:20.178Z,64.97
2017-10-01T17:20:47.782Z,65.23
2017-10-01T17:23:15.418Z,65.27
2017-10-01T17:25:43.028Z,65.32
2017-10-01T17:28:10.678Z,65.16
2017-10-01T17:30:38.299Z,65.70
2017-10-01T17:33:05.943Z,65.80
2017-10-01T17:35:33.739Z,66.33
2017-10-01T17:38:01.426Z,66.81
2017-10-01T17:40:29.061Z,66.87
2017-10-01T17:42:56.716Z,67.30
2017-10-01T17:45:24.320Z,67.19
2017-10-01T17:47:51.923Z,67.52
2017-10-01T17:50:19.609Z,67.72
2017-10-01T17:52:47.385Z,67.82
2017-10-01T17:55:14.990Z,68.26
2017-10-01T17:57:42.629Z,68.51
2017-10-01T18:00:10.225Z,68.58
2017-10-01T18:02:37.850Z,69.28
2017-10-01T18:05:05.457Z,69.57
2017-10-01T18:07:33.082Z,70.42
2017-10-01T18:10:00.696Z,70.47
2017-10-01T18:12:28.331Z,70.36
2017-10-01T18:14:56.046Z,70.71
2017-10-01T18:17:23.737Z,71.07
2017-10-01T18:19:51.528Z,71.21
2017-10-01T18:22:19.134Z,71.44
2017-10-01T18:24:46.778Z,71.63
2017-10-01T18:27:14.355Z,71.74
2017-10-01T18:29:41.974Z,72.33
2017-10-01T18:32:09.584Z,72.34
2017-10-01T18:34:37.226Z,72.68
2017-10-01T18:37:04.829Z,73.10
2017-10-01T18:39:32.440Z,73.28
2017-10-01T18:42:00.122Z,73.38
2017-10-01T18:44:27.818Z,73.51
2017-10-01T18:46:55.475Z,73.61
2017-10-01T18:49:23.090Z,74.34
2017-10-01T18:51:50.713Z,73.15
2017-10-01T18:54:18.305Z,73.21
2017-10-01T18:56:45.955Z,73.46
2017-10-01T18:59:13.595Z,73.23
2017-10-01T19:01:41.256Z,72.98
2017-10-01T19:04:08.854Z,73.46
2017-10-01T19:06:36.518Z,73.22
2017-10-01T19:09:04.180Z,72.57
2017-10-01T19:11:31.810Z,72.57
2017-10-01T19:13:59.503Z,72.84
2017-10-01T19:16:27.241Z,72.94
2017-10-01T19:18:54.887Z,72.97
2017-10-01T19:21:22.520Z,73.60
2017-10-01T19:23:50.150Z,73.82
2017-10-01T19:26:17.755Z,74.40
2017-10-01T19:28:45.383Z,74.75
2017-10-01T19:31:12.999Z,75.86
2017-10-01T19:33:40.653Z,75.57
2017-10-01T19:36:08.309Z,76.55
2017-10-01T19:38:36.024Z,76.85
2017-10-01T19:41:03.649Z,77.36
2017-10-01T19:43:31.294Z,77.32
2017-10-01T19:45:58.962Z,77.29
2017-10-01T19:48:26.596Z,77.44
2017-10-01T19:50:54.296Z,77.41
2017-10-01T19:53:21.928Z,77.90
2017-10-01T19:55:49.739Z,78.30
2017-10-01T19:58:17.645Z,78.42
2017-10-01T20:00:45.316Z,78.38
2017-10-01T20:03:12.989Z,78.26
2017-10-01T20:05:40.661Z,78.25
2017-10-01T20:08:08.266Z,78.41
2017-10-01T20:10:35.910Z,79.16
2017-10-01T20:13:03.592Z,78.77
2017-10-01T20:15:31.207Z,78.79
2017-10-01T20:17:58.873Z,79.20
2017-10-01T20:20:26.508Z,78.49
2017-10-01T20:22:54.139Z,78.36
2017-10-01T20:25:21.833Z,78.63
2017-10-01T20:27:49.459Z,78.35
2017-10-01T20:30:17.091Z,78.70
2017-10-01T20:32:44.724Z,78.52
2017-10-01T20:35:12.381Z,78.02
2017-10-01T20:37:39.971Z,78.65
2017-10-01T20:40:07.628Z,78.63
2017-10-01T20:42:35.214Z,78.35
2017-10-01T20:45:02.856Z,78.53
2017-10-01T20:47:30.462Z,78.49
2017-10-01T20:49:58.090Z,78.34
2017-10-01T20:52:25.778Z,78.27
2017-10-01T20:54:53.462Z,78.13
2017-10-01T20:57:21.090Z,77.80
2017-10-01T20:59:48.761Z,77.40
2017-10-01T21:02:16.359Z,77.59
2017-10-01T21:04:44.039Z,77.69
2017-10-01T21:07:11.650Z,77.67
2017-10-01T21:09:39.274Z,77.70
2017-10-01T21:12:06.888Z,77.79
2017-10-01T21:14:34.628Z,77.60
2017-10-01T21:17:02.255Z,77.04
2017-10-01T21:19:29.870Z,77.31
2017-10-01T21:21:57.528Z,77.24
2017-10-01T21:24:25.202Z,77.42
2017-10-01T21:26:52.818Z,76.86
2017-10-01T21:29:20.473Z,77.12
2017-10-01T21:31:48.262Z,77.17
2017-10-01T21:34:15.994Z,77.11
2017-10-01T21:36:43.720Z,77.27
2017-10-01T21:39:11.375Z,77.24
2017-10-01T21:41:39.139Z,76.98
2017-10-01T21:44:06.744Z,76.90
2017-10-01T21:46:34.497Z,76.66
2017-10-01T21:49:02.126Z,76.84
2017-10-01T21:51:29.861Z,76.43
2017-10-01T21:53:57.479Z,76.63
2017-10-01T21:56:25.161Z,76.92
2017-10-01T21:58:52.757Z,76.91
2017-10-01T22:01:20.387Z,77.12
2017-10-01T22:03:48.029Z,76.92
2017-10-01T22:06:15.684Z,76.70
2017-10-01T22:08:43.315Z,76.41
2017-10-01T22:11:10.930Z,76.55
2017-10-01T22:13:38.562Z,76.80
2017-10-01T22:16:06.182Z,77.18
2017-10-01T22:18:33.826Z,77.37
2017-10-01T22:21:01.515Z,76.82
2017-10-01T22:23:29.123Z,76.62
2017-10-01T22:25:56.763Z,76.57
2017-10-01T22:28:24.393Z,76.62
2017-10-01T22:30:51.989Z,76.48
2017-10-01T22:33:19.622Z,76.41
2017-10-01T22:35:47.241Z,76.52
2017-10-01T22:38:14.935Z,76.12
2017-10-01T22:40:42.553Z,76.00
2017-10-01T22:43:10.161Z,76.48
2017-10-01T22:45:37.847Z,75.89
2017-10-01T22:48:05.448Z,76.09
2017-10-01T22:50:33.083Z,75.89
2017-10-01T22:53:00.670Z,76.06
2017-10-01T22:55:28.316Z,75.45
2017-10-01T22:57:56.016Z,75.61
2017-10-01T23:00:23.634Z,75.48
2017-10-01T23:02:51.242Z,74.88
2017-10-01T23:05:18.884Z,75.28
2017-10-01T23:07:46.499Z,75.63
2017-10-01T23:10:14.155Z,75.48
2017-10-01T23:12:41.747Z,75.22
2017-10-01T23:15:09.378Z,75.31
2017-10-01T23:17:37.015Z,75.70
2017-10-01T23:20:04.675Z,75.00
2017-10-01T23:22:32.300Z,74.63
2017-10-01T23:24:59.930Z,74.67
2017-10-01T23:27:27.561Z,74.68
2017-10-01T23:29:55.191Z,74.91
2017-10-01T23:32:22.793Z,74.84
2017-10-01T23:34:50.435Z,74.92
2017-10-01T23:37:19.183Z,75.34
2017-10-01T23:39:46.805Z,75.61
2017-10-01T23:42:14.414Z,75.63
2017-10-01T23:44:42.039Z,75.82
2017-10-01T23:47:09.643Z,75.30
2017-10-01T23:49:37.258Z,75.69
2017-10-01T23:52:04.853Z,75.94
2017-10-01T23:54:32.518Z,75.68
2017-10-01T23:57:00.131Z,76.02
2017-10-01T23:59:27.765Z,76.03
